Time,TemperatureF,DewpointF,PressureIn,WindDirection,WindDirectionDegrees,WindSpeedMPH,WindSpeedGustMPH,Humidity,HourlyPrecipIn,Conditions,Clouds,dailyrainin,SoftwareType,DateUTC
2013-05-04 00:01:00,57.7,36.4,30.59,NNE,22,0.0,0.0,45,0.00,,,0.00,WUHU21623XXSP,2013-05-04 04:01:00,
2013-05-04 00:02:00,57.7,37.0,30.59,NNE,22,0.0,0.0,46,0.00,,,0.00,WUHU21623XXSP,2013-05-04 04:02:00,
2013-05-04 00:07:00,57.7,37.0,30.59,NNE,22,0.0,0.0,46,0.00,,,0.00,WUHU21623XXSP,2013-05-04 04:07:00,
2013-05-04 00:12:00,57.4,36.7,30.59,NNE,22,0.0,0.0,46,0.00,,,0.00,WUHU21623XXSP,2013-05-04 04:12:00,
2013-05-04 00:17:00,57.4,37.3,30.59,NNE,22,0.0,0.0,47,0.00,,,0.00,WUHU21623XXSP,2013-05-04 04:17:00,
2013-05-04 00:22:00,57.0,36.9,30.59,NNE,22,0.0,0.0,47,0.00,,,0.00,WUHU21623XXSP,2013-05-04 04:22:00,
2013-05-04 00:27:00,57.0,37.5,30.59,NNE,22,0.0,0.0,48,0.00,,,0.00,WUHU21623XXSP,2013-05-04 04:27:00,
2013-05-04 00:32:00,56.8,37.3,30.59,NNE,22,0.0,0.0,48,0.00,,,0.00,WUHU21623XXSP,2013-05-04 04:32:00,
2013-05-04 00:37:00,56.8,37.9,30.59,NNE,22,0.0,0.0,49,0.00,,,0.00,WUHU21623XXSP,2013-05-04 04:37:00,
2013-05-04 00:42:00,56.7,38.3,30.59,NNE,22,0.0,0.0,50,0.00,,,0.00,WUHU21623XXSP,2013-05-04 04:42:00,
2013-05-04 00:47:00,56.5,38.1,30.59,NNE,22,0.0,0.0,50,0.00,,,0.00,WUHU21623XXSP,2013-05-04 04:47:00,
2013-05-04 00:52:00,56.5,38.1,30.59,NNE,22,0.0,0.0,50,0.00,,,0.00,WUHU21623XXSP,2013-05-04 04:52:00,
2013-05-04 00:57:00,56.3,38.4,30.59,NE,45,0.0,0.0,51,0.00,,,0.00,WUHU21623XXSP,2013-05-04 04:57:00,
2013-05-04 01:02:00,56.3,38.4,30.59,ENE,67,0.0,0.0,51,0.00,,,0.00,WUHU21623XXSP,2013-05-04 05:02:00,
2013-05-04 01:07:00,56.1,38.2,30.59,ENE,67,0.0,0.0,51,0.00,,,0.00,WUHU21623XXSP,2013-05-04 05:07:00,
2013-05-04 01:12:00,56.1,38.7,30.59,ENE,67,0.0,0.0,52,0.00,,,0.00,WUHU21623XXSP,2013-05-04 05:12:00,
2013-05-04 01:17:00,55.9,38.5,30.59,ENE,67,0.0,0.0,52,0.00,,,0.00,WUHU21623XXSP,2013-05-04 05:17:00,
2013-05-04 01:22:00,55.9,38.5,30.59,NE,45,0.0,0.0,52,0.00,,,0.00,WUHU21623XXSP,2013-05-04 05:22:00,
2013-05-04 01:27:00,55.9,39.0,30.59,NE,45,0.0,0.0,53,0.00,,,0.00,WUHU21623XXSP,2013-05-04 05:27:00,
2013-05-04 01:32:00,55.9,39.0,30.59,ENE,67,0.0,0.0,53,0.00,,,0.00,WUHU21623XXSP,2013-05-04 05:32:00,
2013-05-04 01:37:00,55.9,39.5,30.59,SE,135,0.0,0.0,54,0.00,,,0.00,WUHU21623XXSP,2013-05-04 05:37:00,
2013-05-04 01:43:00,55.9,39.9,30.59,NNW,337,0.0,0.0,55,0.00,,,0.00,WUHU21623XXSP,2013-05-04 05:43:00,
2013-05-04 01:48:00,55.8,39.7,30.59,North,0,0.0,0.0,55,0.00,,,0.00,WUHU21623XXSP,2013-05-04 05:48:00,
2013-05-04 01:53:00,55.8,40.2,30.59,SW,225,0.0,0.0,56,0.00,,,0.00,WUHU21623XXSP,2013-05-04 05:53:00,
2013-05-04 01:58:00,55.8,40.7,30.59,NNE,22,0.0,0.0,57,0.00,,,0.00,WUHU21623XXSP,2013-05-04 05:58:00,
2013-05-04 02:03:00,55.8,40.7,30.58,NNE,22,0.0,0.0,57,0.00,,,0.00,WUHU21623XXSP,2013-05-04 06:03:00,
2013-05-04 02:08:00,55.9,40.9,30.59,NNE,22,0.0,0.0,57,0.00,,,0.00,WUHU21623XXSP,2013-05-04 06:08:00,
2013-05-04 02:13:00,55.8,40.7,30.58,NNE,22,0.0,0.0,57,0.00,,,0.00,WUHU21623XXSP,2013-05-04 06:13:00,
2013-05-04 02:18:00,55.8,40.7,30.58,WNW,292,0.0,0.0,57,0.00,,,0.00,WUHU21623XXSP,2013-05-04 06:18:00,
2013-05-04 02:23:00,55.6,40.5,30.58,West,270,0.0,0.0,57,0.00,,,0.00,WUHU21623XXSP,2013-05-04 06:23:00,
2013-05-04 02:28:00,55.6,41.0,30.58,West,270,0.0,0.0,58,0.00,,,0.00,WUHU21623XXSP,2013-05-04 06:28:00,
2013-05-04 02:33:00,55.6,41.0,30.58,West,270,0.0,0.0,58,0.00,,,0.00,WUHU21623XXSP,2013-05-04 06:33:00,
2013-05-04 02:38:00,55.4,40.8,30.59,West,270,0.0,0.0,58,0.00,,,0.00,WUHU21623XXSP,2013-05-04 06:38:00,
2013-05-04 02:43:00,55.2,40.6,30.59,West,270,0.0,0.0,58,0.00,,,0.00,WUHU21623XXSP,2013-05-04 06:43:00,
2013-05-04 02:48:00,55.2,40.6,30.58,West,270,0.0,0.0,58,0.00,,,0.00,WUHU21623XXSP,2013-05-04 06:48:00,
2013-05-04 02:53:00,55.2,40.6,30.58,West,270,0.0,0.0,58,0.00,,,0.00,WUHU21623XXSP,2013-05-04 06:53:00,
2013-05-04 02:58:00,55.0,40.9,30.58,West,270,0.0,0.0,59,0.00,,,0.00,WUHU21623XXSP,2013-05-04 06:58:00,
2013-05-04 03:03:00,55.0,40.9,30.58,West,270,0.0,0.0,59,0.00,,,0.00,WUHU21623XXSP,2013-05-04 07:03:00,
2013-05-04 03:08:00,54.9,41.4,30.59,West,270,0.0,0.0,60,0.00,,,0.00,WUHU21623XXSP,2013-05-04 07:08:00,
2013-05-04 03:13:00,54.9,41.2,30.59,West,270,0.0,0.0,60,0.00,,,0.00,WUHU21623XXSP,2013-05-04 07:13:00,
2013-05-04 03:18:00,54.7,41.1,30.58,West,270,0.0,0.0,60,0.00,,,0.00,WUHU21623XXSP,2013-05-04 07:18:00,
2013-05-04 03:23:00,54.5,40.9,30.58,West,270,0.0,0.0,60,0.00,,,0.00,WUHU21623XXSP,2013-05-04 07:23:00,
2013-05-04 03:28:00,54.3,40.7,30.58,West,270,0.0,0.0,60,0.00,,,0.00,WUHU21623XXSP,2013-05-04 07:28:00,
2013-05-04 03:33:00,54.3,40.7,30.58,West,270,0.0,0.0,60,0.00,,,0.00,WUHU21623XXSP,2013-05-04 07:33:00,
2013-05-04 03:38:00,54.3,40.7,30.58,West,270,0.0,0.0,60,0.00,,,0.00,WUHU21623XXSP,2013-05-04 07:38:00,
2013-05-04 03:43:00,54.1,41.0,30.58,West,270,0.0,0.0,61,0.00,,,0.00,WUHU21623XXSP,2013-05-04 07:43:00,
2013-05-04 03:48:00,54.1,41.0,30.58,West,270,0.0,0.0,61,0.00,,,0.00,WUHU21623XXSP,2013-05-04 07:48:00,
2013-05-04 03:54:00,54.0,40.8,30.58,NW,315,0.0,0.0,61,0.00,,,0.00,WUHU21623XXSP,2013-05-04 07:54:00,
2013-05-04 03:59:00,54.0,41.2,30.58,NW,315,0.0,0.0,62,0.00,,,0.00,WUHU21623XXSP,2013-05-04 07:59:00,
2013-05-04 04:04:00,53.8,41.1,30.59,NW,315,0.0,0.0,62,0.00,,,0.00,WUHU21623XXSP,2013-05-04 08:04:00,
2013-05-04 04:09:00,53.8,41.1,30.59,NW,315,0.0,0.0,62,0.00,,,0.00,WUHU21623XXSP,2013-05-04 08:09:00,
2013-05-04 04:14:00,53.8,41.1,30.58,NW,315,0.0,0.0,62,0.00,,,0.00,WUHU21623XXSP,2013-05-04 08:14:00,
2013-05-04 04:19:00,53.4,40.7,30.58,NW,315,0.0,0.0,62,0.00,,,0.00,WUHU21623XXSP,2013-05-04 08:19:00,
2013-05-04 04:24:00,53.4,41.1,30.59,NW,315,0.0,0.0,63,0.00,,,0.00,WUHU21623XXSP,2013-05-04 08:24:00,
2013-05-04 04:29:00,53.4,41.1,30.59,NW,315,0.0,0.0,63,0.00,,,0.00,WUHU21623XXSP,2013-05-04 08:29:00,
2013-05-04 04:34:00,53.2,40.9,30.59,NW,315,0.0,0.0,63,0.00,,,0.00,WUHU21623XXSP,2013-05-04 08:34:00,
2013-05-04 04:39:00,53.2,41.3,30.59,NW,315,0.0,0.0,64,0.00,,,0.00,WUHU21623XXSP,2013-05-04 08:39:00,
2013-05-04 04:44:00,53.2,40.9,30.59,NW,315,0.0,0.0,63,0.00,,,0.00,WUHU21623XXSP,2013-05-04 08:44:00,
2013-05-04 04:49:00,53.1,40.7,30.59,NW,315,0.0,0.0,63,0.00,,,0.00,WUHU21623XXSP,2013-05-04 08:49:00,
2013-05-04 04:54:00,52.9,41.0,30.59,NW,315,0.0,0.0,64,0.00,,,0.00,WUHU21623XXSP,2013-05-04 08:54:00,
2013-05-04 04:59:00,52.7,40.8,30.59,NW,315,0.0,0.0,64,0.00,,,0.00,WUHU21623XXSP,2013-05-04 08:59:00,
2013-05-04 05:04:00,52.5,40.6,30.59,NW,315,0.0,0.0,64,0.00,,,0.00,WUHU21623XXSP,2013-05-04 09:04:00,
2013-05-04 05:09:00,52.5,41.1,30.59,NW,315,0.0,0.0,65,0.00,,,0.00,WUHU21623XXSP,2013-05-04 09:09:00,
2013-05-04 05:14:00,52.3,41.3,30.59,NW,315,0.0,0.0,66,0.00,,,0.00,WUHU21623XXSP,2013-05-04 09:14:00,
2013-05-04 05:19:00,52.2,41.1,30.59,NW,315,0.0,0.0,66,0.00,,,0.00,WUHU21623XXSP,2013-05-04 09:19:00,
2013-05-04 05:24:00,52.0,41.4,30.60,NW,315,0.0,0.0,67,0.00,,,0.00,WUHU21623XXSP,2013-05-04 09:24:00,
2013-05-04 05:29:00,51.6,41.0,30.59,NW,315,0.0,0.0,67,0.00,,,0.00,WUHU21623XXSP,2013-05-04 09:29:00,
2013-05-04 05:34:00,51.6,41.0,30.59,NW,315,0.0,0.0,67,0.00,,,0.00,WUHU21623XXSP,2013-05-04 09:34:00,
2013-05-04 05:39:00,51.4,40.8,30.59,NW,315,0.0,0.0,67,0.00,,,0.00,WUHU21623XXSP,2013-05-04 09:39:00,
2013-05-04 05:44:00,51.3,41.1,30.60,NW,315,0.0,0.0,68,0.00,,,0.00,WUHU21623XXSP,2013-05-04 09:44:00,
2013-05-04 05:49:00,51.1,41.3,30.60,NW,315,0.0,0.0,69,0.00,,,0.00,WUHU21623XXSP,2013-05-04 09:49:00,
2013-05-04 05:54:00,51.1,41.3,30.59,NW,315,0.0,0.0,69,0.00,,,0.00,WUHU21623XXSP,2013-05-04 09:54:00,
2013-05-04 05:59:00,50.7,41.1,30.60,NW,315,0.0,0.0,69,0.00,,,0.00,WUHU21623XXSP,2013-05-04 09:59:00,
2013-05-04 06:05:00,50.7,40.9,30.60,NW,315,0.0,0.0,69,0.00,,,0.00,WUHU21623XXSP,2013-05-04 10:05:00,
2013-05-04 06:10:00,50.7,41.4,30.60,NW,315,0.0,0.0,70,0.00,,,0.00,WUHU21623XXSP,2013-05-04 10:10:00,
2013-05-04 06:15:00,50.7,41.7,30.60,NW,315,0.0,0.0,71,0.00,,,0.00,WUHU21623XXSP,2013-05-04 10:15:00,
2013-05-04 06:20:00,50.5,41.5,30.60,NW,315,0.0,0.0,71,0.00,,,0.00,WUHU21623XXSP,2013-05-04 10:20:00,
2013-05-04 06:25:00,50.5,41.5,30.60,NW,315,0.0,0.0,71,0.00,,,0.00,WUHU21623XXSP,2013-05-04 10:25:00,
2013-05-04 06:30:00,50.4,41.7,30.60,NW,315,0.0,0.0,72,0.00,,,0.00,WUHU21623XXSP,2013-05-04 10:30:00,
2013-05-04 06:35:00,50.4,41.7,30.60,NW,315,0.0,0.0,72,0.00,,,0.00,WUHU21623XXSP,2013-05-04 10:35:00,
2013-05-04 06:40:00,50.2,41.2,30.60,NW,315,0.0,0.0,71,0.00,,,0.00,WUHU21623XXSP,2013-05-04 10:40:00,
2013-05-04 06:45:00,50.2,41.5,30.60,NW,315,0.0,0.0,72,0.00,,,0.00,WUHU21623XXSP,2013-05-04 10:45:00,
2013-05-04 06:50:00,50.2,41.5,30.60,NW,315,0.0,0.0,72,0.00,,,0.00,WUHU21623XXSP,2013-05-04 10:50:00,
2013-05-04 06:55:00,50.4,41.7,30.61,NW,315,0.0,0.0,72,0.00,,,0.00,WUHU21623XXSP,2013-05-04 10:55:00,
2013-05-04 07:00:00,50.4,42.0,30.61,NW,315,0.0,0.0,73,0.00,,,0.00,WUHU21623XXSP,2013-05-04 11:00:00,
2013-05-04 07:05:00,50.4,42.0,30.61,NW,315,0.0,0.0,73,0.00,,,0.00,WUHU21623XXSP,2013-05-04 11:05:00,
2013-05-04 07:10:00,50.5,42.5,30.61,NW,315,0.0,0.0,74,0.00,,,0.00,WUHU21623XXSP,2013-05-04 11:10:00,
2013-05-04 07:15:00,50.7,42.7,30.61,NW,315,0.0,0.0,74,0.00,,,0.00,WUHU21623XXSP,2013-05-04 11:15:00,
2013-05-04 07:20:00,50.9,42.9,30.61,NW,315,0.0,0.0,74,0.00,,,0.00,WUHU21623XXSP,2013-05-04 11:20:00,
2013-05-04 07:25:00,51.4,43.4,30.61,NW,315,0.0,0.0,74,0.00,,,0.00,WUHU21623XXSP,2013-05-04 11:25:00,
2013-05-04 07:30:00,51.6,43.6,30.61,WNW,292,0.0,0.0,74,0.00,,,0.00,WUHU21623XXSP,2013-05-04 11:30:00,
2013-05-04 07:35:00,52.2,44.5,30.61,WNW,292,0.0,0.0,75,0.00,,,0.00,WUHU21623XXSP,2013-05-04 11:35:00,
2013-05-04 07:40:00,52.7,45.0,30.61,WNW,292,0.0,0.0,75,0.00,,,0.00,WUHU21623XXSP,2013-05-04 11:40:00,
2013-05-04 07:45:00,53.2,45.5,30.61,WNW,292,0.0,0.0,75,0.00,,,0.00,WUHU21623XXSP,2013-05-04 11:45:00,
2013-05-04 07:51:00,53.8,45.7,30.62,North,0,0.0,0.0,74,0.00,,,0.00,WUHU21623XXSP,2013-05-04 11:51:00,
2013-05-04 07:56:00,55.0,46.5,30.62,NNE,22,2.5,2.5,73,0.00,,,0.00,WUHU21623XXSP,2013-05-04 11:56:00,
2013-05-04 08:01:00,55.6,46.7,30.62,South,180,0.0,2.5,72,0.00,,,0.00,WUHU21623XXSP,2013-05-04 12:01:00,
2013-05-04 08:06:00,56.8,47.5,30.61,NNE,22,0.0,0.0,71,0.00,,,0.00,WUHU21623XXSP,2013-05-04 12:06:00,
2013-05-04 08:11:00,57.4,47.7,30.61,NE,45,0.0,0.0,70,0.00,,,0.00,WUHU21623XXSP,2013-05-04 12:11:00,
2013-05-04 08:16:00,57.7,47.6,30.62,North,0,0.0,0.0,69,0.00,,,0.00,WUHU21623XXSP,2013-05-04 12:16:00,
2013-05-04 08:21:00,58.6,48.1,30.62,North,0,0.0,0.0,68,0.00,,,0.00,WUHU21623XXSP,2013-05-04 12:21:00,
2013-05-04 08:26:00,59.0,48.0,30.61,WSW,247,0.0,0.0,67,0.00,,,0.00,WUHU21623XXSP,2013-05-04 12:26:00,
2013-05-04 08:32:00,59.7,48.3,30.61,WSW,247,0.0,0.0,66,0.00,,,0.00,WUHU21623XXSP,2013-05-04 12:32:00,
2013-05-04 08:37:00,60.1,48.7,30.61,NNE,22,0.0,0.0,66,0.00,,,0.00,WUHU21623XXSP,2013-05-04 12:37:00,
2013-05-04 08:42:00,61.0,48.8,30.61,West,270,0.0,0.0,65,0.00,,,0.00,WUHU21623XXSP,2013-05-04 12:42:00,
2013-05-04 08:47:00,61.3,49.1,30.61,South,180,0.0,0.0,64,0.00,,,0.00,WUHU21623XXSP,2013-05-04 12:47:00,
2013-05-04 08:52:00,61.7,49.0,30.63,NNE,22,0.0,1.3,63,0.00,,,0.00,WUHU21623XXSP,2013-05-04 12:52:00,
2013-05-04 08:57:00,62.2,49.1,30.63,SE,135,1.3,1.3,62,0.00,,,0.00,WUHU21623XXSP,2013-05-04 12:57:00,
2013-05-04 09:02:00,62.4,48.8,30.62,SSE,157,0.0,3.6,61,0.00,,,0.00,WUHU21623XXSP,2013-05-04 13:02:00,
2013-05-04 09:04:00,62.8,49.1,30.63,NNE,22,1.8,3.6,61,0.00,,,0.00,WUHU21623XXSP,2013-05-04 13:04:00,
2013-05-04 09:09:00,63.1,49.0,30.63,SSW,202,0.0,1.8,60,0.00,,,0.00,WUHU21623XXSP,2013-05-04 13:09:00,
2013-05-04 09:14:00,63.5,49.4,30.62,East,90,0.0,0.9,60,0.00,,,0.00,WUHU21623XXSP,2013-05-04 13:14:00,
2013-05-04 09:19:00,63.7,49.0,30.62,SE,135,0.0,0.9,59,0.00,,,0.00,WUHU21623XXSP,2013-05-04 13:19:00,
2013-05-04 09:24:00,64.0,48.9,30.62,NNE,22,0.9,0.9,58,0.00,,,0.00,WUHU21623XXSP,2013-05-04 13:24:00,
2013-05-04 09:29:00,64.2,49.0,30.62,NNE,22,0.0,0.9,58,0.00,,,0.00,WUHU21623XXSP,2013-05-04 13:29:00,
2013-05-04 09:34:00,64.6,49.4,30.63,WSW,247,0.0,0.0,58,0.00,,,0.00,WUHU21623XXSP,2013-05-04 13:34:00,
2013-05-04 09:39:00,65.1,49.9,30.63,SW,225,0.0,0.0,58,0.00,,,0.00,WUHU21623XXSP,2013-05-04 13:39:00,
2013-05-04 09:44:00,65.5,50.3,30.62,NW,315,0.0,0.0,58,0.00,,,0.00,WUHU21623XXSP,2013-05-04 13:44:00,
2013-05-04 09:49:00,65.8,50.2,30.62,ESE,112,2.9,2.9,57,0.00,,,0.00,WUHU21623XXSP,2013-05-04 13:49:00,
2013-05-04 09:54:00,66.0,49.9,30.62,NNW,337,0.0,2.9,56,0.00,,,0.00,WUHU21623XXSP,2013-05-04 13:54:00,
2013-05-04 09:59:00,66.4,50.2,30.63,SE,135,0.0,0.0,56,0.00,,,0.00,WUHU21623XXSP,2013-05-04 13:59:00,
2013-05-04 10:04:00,66.4,49.7,30.63,ENE,67,5.4,5.4,55,0.00,,,0.00,WUHU21623XXSP,2013-05-04 14:04:00,
2013-05-04 10:09:00,66.6,49.9,30.62,NE,45,2.9,5.4,55,0.00,,,0.00,WUHU21623XXSP,2013-05-04 14:09:00,
2013-05-04 10:14:00,66.7,50.0,30.62,East,90,0.0,2.9,55,0.00,,,0.00,WUHU21623XXSP,2013-05-04 14:14:00,
2013-05-04 10:19:00,66.9,49.7,30.63,North,0,0.0,0.0,54,0.00,,,0.00,WUHU21623XXSP,2013-05-04 14:19:00,
2013-05-04 10:24:00,67.3,50.0,30.62,North,0,0.0,4.5,54,0.00,,,0.00,WUHU21623XXSP,2013-05-04 14:24:00,
2013-05-04 10:30:00,67.5,50.2,30.62,NNW,337,0.0,4.5,54,0.00,,,0.00,WUHU21623XXSP,2013-05-04 14:30:00,
2013-05-04 10:35:00,67.6,50.4,30.62,NNW,337,0.0,0.0,54,0.00,,,0.00,WUHU21623XXSP,2013-05-04 14:35:00,
2013-05-04 10:40:00,68.0,50.2,30.63,North,0,0.0,0.0,53,0.00,,,0.00,WUHU21623XXSP,2013-05-04 14:40:00,
2013-05-04 10:45:00,68.2,50.4,30.62,North,0,0.0,0.0,53,0.00,,,0.00,WUHU21623XXSP,2013-05-04 14:45:00,
2013-05-04 10:50:00,68.7,50.9,30.62,North,0,0.0,0.0,53,0.00,,,0.00,WUHU21623XXSP,2013-05-04 14:50:00,
2013-05-04 10:55:00,68.7,49.9,30.62,WSW,247,0.0,0.0,51,0.00,,,0.00,WUHU21623XXSP,2013-05-04 14:55:00,
2013-05-04 11:00:00,68.9,50.0,30.62,NNE,22,0.0,0.0,51,0.00,,,0.00,WUHU21623XXSP,2013-05-04 15:00:00,
2013-05-04 11:05:00,68.9,49.5,30.62,NNE,22,0.0,0.0,50,0.00,,,0.00,WUHU21623XXSP,2013-05-04 15:05:00,
2013-05-04 11:10:00,69.1,49.7,30.62,NE,45,0.0,1.3,50,0.00,,,0.00,WUHU21623XXSP,2013-05-04 15:10:00,
2013-05-04 11:15:00,69.4,50.5,30.62,NE,45,0.0,1.3,51,0.00,,,0.00,WUHU21623XXSP,2013-05-04 15:15:00,
2013-05-04 11:20:00,69.8,50.9,30.62,NE,45,0.0,0.0,51,0.00,,,0.00,WUHU21623XXSP,2013-05-04 15:20:00,
2013-05-04 11:25:00,70.2,50.7,30.61,NNW,337,0.0,0.0,50,0.00,,,0.00,WUHU21623XXSP,2013-05-04 15:25:00,
2013-05-04 11:30:00,70.5,51.0,30.61,West,270,0.0,0.0,50,0.00,,,0.00,WUHU21623XXSP,2013-05-04 15:30:00,
2013-05-04 11:35:00,70.7,51.7,30.61,West,270,0.0,0.0,51,0.00,,,0.00,WUHU21623XXSP,2013-05-04 15:35:00,
2013-05-04 11:40:00,70.7,50.6,30.61,WNW,292,1.3,1.3,49,0.00,,,0.00,WUHU21623XXSP,2013-05-04 15:40:00,
2013-05-04 11:45:00,70.9,51.3,30.61,NE,45,0.0,1.3,50,0.00,,,0.00,WUHU21623XXSP,2013-05-04 15:45:00,
2013-05-04 11:50:00,70.9,50.7,30.61,SW,225,1.8,1.8,49,0.00,,,0.00,WUHU21623XXSP,2013-05-04 15:50:00,
2013-05-04 11:55:00,70.9,50.7,30.62,WSW,247,0.0,1.8,49,0.00,,,0.00,WUHU21623XXSP,2013-05-04 15:55:00,
2013-05-04 12:00:00,71.1,50.9,30.62,NNW,337,0.0,0.0,49,0.00,,,0.00,WUHU21623XXSP,2013-05-04 16:00:00,
2013-05-04 12:05:00,71.2,50.5,30.61,SW,225,0.0,1.6,48,0.00,,,0.00,WUHU21623XXSP,2013-05-04 16:05:00,
2013-05-04 12:10:00,71.2,51.1,30.61,North,0,0.0,1.6,49,0.00,,,0.00,WUHU21623XXSP,2013-05-04 16:10:00,
2013-05-04 12:15:00,71.4,51.2,30.61,NNE,22,0.0,0.0,49,0.00,,,0.00,WUHU21623XXSP,2013-05-04 16:15:00,
2013-05-04 12:20:00,71.8,51.0,30.62,West,270,0.0,0.0,48,0.00,,,0.00,WUHU21623XXSP,2013-05-04 16:20:00,
2013-05-04 12:25:00,72.1,51.9,30.62,NNE,22,0.0,0.0,49,0.00,,,0.00,WUHU21623XXSP,2013-05-04 16:25:00,
2013-05-04 12:30:00,72.5,51.6,30.61,SW,225,1.3,1.3,48,0.00,,,0.00,WUHU21623XXSP,2013-05-04 16:30:00,
2013-05-04 12:35:00,72.9,51.3,30.61,SSW,202,0.0,1.3,47,0.00,,,0.00,WUHU21623XXSP,2013-05-04 16:35:00,
2013-05-04 12:40:00,72.9,51.3,30.61,SW,225,0.0,0.0,47,0.00,,,0.00,WUHU21623XXSP,2013-05-04 16:40:00,
2013-05-04 12:45:00,73.0,51.5,30.61,NNE,22,0.0,0.0,47,0.00,,,0.00,WUHU21623XXSP,2013-05-04 16:45:00,
2013-05-04 12:50:00,73.4,52.4,30.61,WNW,292,0.0,0.0,48,0.00,,,0.00,WUHU21623XXSP,2013-05-04 16:50:00,
2013-05-04 12:55:00,73.6,52.0,30.61,WSW,247,0.0,0.0,47,0.00,,,0.00,WUHU21623XXSP,2013-05-04 16:55:00,
2013-05-04 13:00:00,73.6,51.4,30.61,WSW,247,0.0,0.0,46,0.00,,,0.00,WUHU21623XXSP,2013-05-04 17:00:00,
2013-05-04 13:05:00,73.4,51.2,30.61,NNE,22,0.0,0.0,46,0.00,,,0.00,WUHU21623XXSP,2013-05-04 17:05:00,
2013-05-04 13:10:00,73.8,52.2,30.61,SSW,202,0.0,0.0,47,0.00,,,0.00,WUHU21623XXSP,2013-05-04 17:10:00,
2013-05-04 13:15:00,74.3,52.7,30.61,NW,315,0.0,0.0,47,0.00,,,0.00,WUHU21623XXSP,2013-05-04 17:15:00,
2013-05-04 13:21:00,74.8,52.0,30.61,NE,45,0.0,0.0,45,0.00,,,0.00,WUHU21623XXSP,2013-05-04 17:21:00,
2013-05-04 13:26:00,74.8,52.6,30.61,SW,225,2.9,2.9,46,0.00,,,0.00,WUHU21623XXSP,2013-05-04 17:26:00,
2013-05-04 13:31:00,74.8,52.0,30.61,NE,45,0.0,2.9,45,0.00,,,0.00,WUHU21623XXSP,2013-05-04 17:31:00,
2013-05-04 13:36:00,74.8,52.0,30.61,SE,135,0.0,2.2,45,0.00,,,0.00,WUHU21623XXSP,2013-05-04 17:36:00,
2013-05-04 13:41:00,74.8,52.0,30.61,WSW,247,0.0,0.0,45,0.00,,,0.00,WUHU21623XXSP,2013-05-04 17:41:00,
2013-05-04 13:46:00,75.0,51.5,30.60,NE,45,0.0,0.0,44,0.00,,,0.00,WUHU21623XXSP,2013-05-04 17:46:00,
2013-05-04 13:51:00,75.0,51.5,30.61,SSW,202,1.1,1.1,44,0.00,,,0.00,WUHU21623XXSP,2013-05-04 17:51:00,
2013-05-04 13:56:00,74.8,51.4,30.60,SSW,202,1.1,1.1,44,0.00,,,0.00,WUHU21623XXSP,2013-05-04 17:56:00,
2013-05-04 14:01:00,74.8,51.4,30.60,WNW,292,0.0,1.1,44,0.00,,,0.00,WUHU21623XXSP,2013-05-04 18:01:00,
2013-05-04 14:06:00,75.0,50.9,30.60,ESE,112,2.2,2.2,43,0.00,,,0.00,WUHU21623XXSP,2013-05-04 18:06:00,
2013-05-04 14:11:00,75.4,51.3,30.60,West,270,0.0,2.2,43,0.00,,,0.00,WUHU21623XXSP,2013-05-04 18:11:00,
2013-05-04 14:16:00,75.6,50.8,30.60,West,270,0.0,3.8,42,0.00,,,0.00,WUHU21623XXSP,2013-05-04 18:16:00,
2013-05-04 14:21:00,75.9,51.2,30.60,SSW,202,0.0,3.8,42,0.00,,,0.00,WUHU21623XXSP,2013-05-04 18:21:00,
2013-05-04 14:26:00,76.1,50.1,30.60,WSW,247,0.0,0.0,40,0.00,,,0.00,WUHU21623XXSP,2013-05-04 18:26:00,
2013-05-04 14:31:00,75.7,50.4,30.59,SSE,157,0.0,0.0,41,0.00,,,0.00,WUHU21623XXSP,2013-05-04 18:31:00,
2013-05-04 14:36:00,76.3,50.9,30.60,ESE,112,0.0,0.0,41,0.00,,,0.00,WUHU21623XXSP,2013-05-04 18:36:00,
2013-05-04 14:41:00,76.3,50.9,30.59,SW,225,3.8,3.8,41,0.00,,,0.00,WUHU21623XXSP,2013-05-04 18:41:00,
2013-05-04 14:46:00,76.1,50.1,30.59,WSW,247,4.5,4.5,40,0.00,,,0.00,WUHU21623XXSP,2013-05-04 18:46:00,
2013-05-04 14:51:00,75.7,50.5,30.59,WSW,247,0.0,4.5,42,0.00,,,0.00,WUHU21623XXSP,2013-05-04 18:51:00,
2013-05-04 14:56:00,76.1,50.7,30.60,WSW,247,0.0,3.8,41,0.00,,,0.00,WUHU21623XXSP,2013-05-04 18:56:00,
2013-05-04 15:01:00,76.8,52.0,30.59,WSW,247,4.0,4.0,42,0.00,,,0.00,WUHU21623XXSP,2013-05-04 19:01:00,
2013-05-04 15:06:00,76.8,51.4,30.59,WSW,247,0.0,4.0,41,0.00,,,0.00,WUHU21623XXSP,2013-05-04 19:06:00,
2013-05-04 15:11:00,77.2,51.7,30.58,West,270,0.0,1.6,41,0.00,,,0.00,WUHU21623XXSP,2013-05-04 19:11:00,
2013-05-04 15:16:00,76.6,50.7,30.58,SW,225,0.0,4.3,40,0.00,,,0.00,WUHU21623XXSP,2013-05-04 19:16:00,
2013-05-04 15:21:00,75.9,49.9,30.59,SW,225,0.0,4.3,40,0.00,,,0.00,WUHU21623XXSP,2013-05-04 19:21:00,
2013-05-04 15:26:00,75.7,50.4,30.58,SSW,202,2.5,3.1,41,0.00,,,0.00,WUHU21623XXSP,2013-05-04 19:26:00,
2013-05-04 15:31:00,75.4,49.4,30.58,WSW,247,1.8,6.5,40,0.00,,,0.00,WUHU21623XXSP,2013-05-04 19:31:00,
2013-05-04 15:36:00,75.7,50.4,30.58,WSW,247,0.0,6.5,41,0.00,,,0.00,WUHU21623XXSP,2013-05-04 19:36:00,
2013-05-04 15:41:00,75.9,49.2,30.58,WSW,247,3.8,3.8,39,0.00,,,0.00,WUHU21623XXSP,2013-05-04 19:41:00,
2013-05-04 15:46:00,76.6,50.6,30.57,WSW,247,5.1,5.1,40,0.00,,,0.00,WUHU21623XXSP,2013-05-04 19:46:00,
2013-05-04 15:51:00,76.8,49.2,30.57,WSW,247,3.8,5.1,38,0.00,,,0.00,WUHU21623XXSP,2013-05-04 19:51:00,
2013-05-04 15:56:00,77.2,49.5,30.58,WSW,247,1.8,3.8,38,0.00,,,0.00,WUHU21623XXSP,2013-05-04 19:56:00,
2013-05-04 16:01:00,77.2,49.5,30.57,WSW,247,0.0,4.0,38,0.00,,,0.00,WUHU21623XXSP,2013-05-04 20:01:00,
2013-05-04 16:06:00,76.8,47.7,30.57,SSW,202,2.5,4.0,36,0.00,,,0.00,WUHU21623XXSP,2013-05-04 20:06:00,
2013-05-04 16:11:00,76.6,48.3,30.57,West,270,3.1,4.5,37,0.00,,,0.00,WUHU21623XXSP,2013-05-04 20:11:00,
2013-05-04 16:16:00,76.3,48.0,30.57,WSW,247,0.0,4.5,37,0.00,,,0.00,WUHU21623XXSP,2013-05-04 20:16:00,
2013-05-04 16:21:00,76.6,47.6,30.56,SW,225,2.5,2.5,36,0.00,,,0.00,WUHU21623XXSP,2013-05-04 20:21:00,
2013-05-04 16:26:00,76.3,48.0,30.56,SW,225,0.0,4.0,37,0.00,,,0.00,WUHU21623XXSP,2013-05-04 20:26:00,
2013-05-04 16:32:00,75.9,46.9,30.56,SSE,157,0.0,4.0,36,0.00,,,0.00,WUHU21623XXSP,2013-05-04 20:32:00,
2013-05-04 16:37:00,75.7,46.7,30.56,SW,225,0.0,1.1,36,0.00,,,0.00,WUHU21623XXSP,2013-05-04 20:37:00,
2013-05-04 16:42:00,75.6,46.6,30.56,WSW,247,0.0,2.2,36,0.00,,,0.00,WUHU21623XXSP,2013-05-04 20:42:00,
2013-05-04 16:47:00,75.6,46.6,30.56,WSW,247,1.6,2.2,36,0.00,,,0.00,WUHU21623XXSP,2013-05-04 20:47:00,
2013-05-04 16:52:00,75.9,46.9,30.56,WSW,247,0.0,4.0,36,0.00,,,0.00,WUHU21623XXSP,2013-05-04 20:52:00,
2013-05-04 16:57:00,76.3,47.2,30.56,WSW,247,4.0,4.0,36,0.00,,,0.00,WUHU21623XXSP,2013-05-04 20:57:00,
2013-05-04 17:02:00,76.5,46.6,30.56,NNW,337,0.0,4.5,35,0.00,,,0.00,WUHU21623XXSP,2013-05-04 21:02:00,
2013-05-04 17:07:00,76.5,45.9,30.56,WSW,247,4.5,4.5,34,0.00,,,0.00,WUHU21623XXSP,2013-05-04 21:07:00,
2013-05-04 17:12:00,76.6,46.8,30.56,WSW,247,2.0,4.5,35,0.00,,,0.00,WUHU21623XXSP,2013-05-04 21:12:00,
2013-05-04 17:17:00,76.3,45.7,30.56,WSW,247,0.0,2.0,34,0.00,,,0.00,WUHU21623XXSP,2013-05-04 21:17:00,
2013-05-04 17:22:00,76.1,44.8,30.56,ENE,67,0.0,4.9,33,0.00,,,0.00,WUHU21623XXSP,2013-05-04 21:22:00,
2013-05-04 17:27:00,76.1,44.8,30.56,WNW,292,0.0,4.9,33,0.00,,,0.00,WUHU21623XXSP,2013-05-04 21:27:00,
2013-05-04 17:32:00,76.5,44.4,30.56,WSW,247,1.8,5.1,32,0.00,,,0.00,WUHU21623XXSP,2013-05-04 21:32:00,
2013-05-04 17:37:00,76.3,45.0,30.56,SSW,202,1.3,5.4,33,0.00,,,0.00,WUHU21623XXSP,2013-05-04 21:37:00,
2013-05-04 17:42:00,76.3,45.0,30.56,WSW,247,1.6,5.4,33,0.00,,,0.00,WUHU21623XXSP,2013-05-04 21:42:00,
2013-05-04 17:47:00,76.3,44.2,30.56,WSW,247,0.0,1.6,32,0.00,,,0.00,WUHU21623XXSP,2013-05-04 21:47:00,
2013-05-04 17:52:00,75.9,43.9,30.56,WSW,247,0.9,1.8,32,0.00,,,0.00,WUHU21623XXSP,2013-05-04 21:52:00,
2013-05-04 17:57:00,75.7,43.7,30.56,West,270,0.0,1.8,32,0.00,,,0.00,WUHU21623XXSP,2013-05-04 21:57:00,
2013-05-04 18:02:00,75.4,43.4,30.56,WSW,247,0.0,3.1,32,0.00,,,0.00,WUHU21623XXSP,2013-05-04 22:02:00,
2013-05-04 18:07:00,75.0,43.1,30.56,WSW,247,6.0,6.0,32,0.00,,,0.00,WUHU21623XXSP,2013-05-04 22:07:00,
2013-05-04 18:12:00,74.5,42.6,30.56,NNW,337,0.0,6.0,32,0.00,,,0.00,WUHU21623XXSP,2013-05-04 22:12:00,
2013-05-04 18:17:00,74.3,42.4,30.56,West,270,0.0,0.9,32,0.00,,,0.00,WUHU21623XXSP,2013-05-04 22:17:00,
2013-05-04 18:22:00,74.1,42.3,30.56,WSW,247,0.0,3.1,32,0.00,,,0.00,WUHU21623XXSP,2013-05-04 22:22:00,
2013-05-04 18:27:00,74.1,42.3,30.56,WSW,247,0.0,0.0,32,0.00,,,0.00,WUHU21623XXSP,2013-05-04 22:27:00,
2013-05-04 18:32:00,73.9,42.9,30.56,West,270,0.0,1.8,33,0.00,,,0.00,WUHU21623XXSP,2013-05-04 22:32:00,
2013-05-04 18:37:00,73.9,43.6,30.56,WSW,247,2.9,2.9,34,0.00,,,0.00,WUHU21623XXSP,2013-05-04 22:37:00,
2013-05-04 18:42:00,73.9,42.9,30.56,WSW,247,0.0,2.9,33,0.00,,,0.00,WUHU21623XXSP,2013-05-04 22:42:00,
2013-05-04 18:48:00,73.6,41.0,30.56,NNE,22,2.2,3.1,31,0.00,,,0.00,WUHU21623XXSP,2013-05-04 22:48:00,
2013-05-04 18:53:00,73.2,41.5,30.55,West,270,0.0,3.1,32,0.00,,,0.00,WUHU21623XXSP,2013-05-04 22:53:00,
2013-05-04 18:58:00,73.0,40.5,30.56,West,270,0.0,2.0,31,0.00,,,0.00,WUHU21623XXSP,2013-05-04 22:58:00,
2013-05-04 19:03:00,72.3,41.5,30.56,WSW,247,0.0,2.0,33,0.00,,,0.00,WUHU21623XXSP,2013-05-04 23:03:00,
2013-05-04 19:08:00,72.0,41.9,30.56,SW,225,0.0,1.6,34,0.00,,,0.00,WUHU21623XXSP,2013-05-04 23:08:00,
2013-05-04 19:13:00,71.4,41.5,30.56,SW,225,2.9,2.9,34,0.00,,,0.00,WUHU21623XXSP,2013-05-04 23:13:00,
2013-05-04 19:18:00,70.5,42.9,30.56,WSW,247,0.0,2.9,37,0.00,,,0.00,WUHU21623XXSP,2013-05-04 23:18:00,
2013-05-04 19:23:00,69.8,42.9,30.56,WSW,247,0.0,1.3,38,0.00,,,0.00,WUHU21623XXSP,2013-05-04 23:23:00,
2013-05-04 19:28:00,69.4,42.6,30.56,SW,225,0.0,0.0,38,0.00,,,0.00,WUHU21623XXSP,2013-05-04 23:28:00,
2013-05-04 19:33:00,68.5,43.3,30.56,SW,225,0.0,0.0,40,0.00,,,0.00,WUHU21623XXSP,2013-05-04 23:33:00,
2013-05-04 19:38:00,68.5,43.9,30.57,WSW,247,0.0,0.0,41,0.00,,,0.00,WUHU21623XXSP,2013-05-04 23:38:00,
2013-05-04 19:43:00,67.8,44.4,30.56,WSW,247,0.0,0.0,43,0.00,,,0.00,WUHU21623XXSP,2013-05-04 23:43:00,
2013-05-04 19:48:00,67.5,44.1,30.56,West,270,0.0,0.0,43,0.00,,,0.00,WUHU21623XXSP,2013-05-04 23:48:00,
2013-05-04 19:53:00,67.3,44.5,30.57,WSW,247,0.0,0.0,44,0.00,,,0.00,WUHU21623XXSP,2013-05-04 23:53:00,
2013-05-04 19:58:00,66.6,45.1,30.56,North,0,0.0,0.0,46,0.00,,,0.00,WUHU21623XXSP,2013-05-04 23:58:00,
2013-05-04 20:03:00,66.0,44.6,30.57,WSW,247,0.0,0.0,46,0.00,,,0.00,WUHU21623XXSP,2013-05-05 00:03:00,
2013-05-04 20:08:00,65.8,44.4,30.56,WSW,247,0.0,0.0,46,0.00,,,0.00,WUHU21623XXSP,2013-05-05 00:08:00,
2013-05-04 20:13:00,65.3,45.0,30.57,SW,225,0.0,0.0,48,0.00,,,0.00,WUHU21623XXSP,2013-05-05 00:13:00,
2013-05-04 20:18:00,64.9,44.7,30.57,WSW,247,0.0,0.0,48,0.00,,,0.00,WUHU21623XXSP,2013-05-05 00:18:00,
2013-05-04 20:23:00,64.6,44.3,30.57,WSW,247,0.0,0.0,48,0.00,,,0.00,WUHU21623XXSP,2013-05-05 00:23:00,
2013-05-04 20:28:00,64.0,43.8,30.58,WSW,247,0.0,0.0,48,0.00,,,0.00,WUHU21623XXSP,2013-05-05 00:28:00,
2013-05-04 20:33:00,63.7,43.8,30.58,WSW,247,0.0,0.0,49,0.00,,,0.00,WUHU21623XXSP,2013-05-05 00:33:00,
2013-05-04 20:38:00,63.3,43.8,30.58,SW,225,0.0,0.0,49,0.00,,,0.00,WUHU21623XXSP,2013-05-05 00:38:00,
2013-05-04 20:43:00,63.0,43.4,30.58,SW,225,0.0,0.0,49,0.00,,,0.00,WUHU21623XXSP,2013-05-05 00:43:00,
2013-05-04 20:48:00,62.6,43.1,30.58,NE,45,0.0,0.0,49,0.00,,,0.00,WUHU21623XXSP,2013-05-05 00:48:00,
2013-05-04 20:53:00,62.4,42.4,30.58,NE,45,0.0,0.0,48,0.00,,,0.00,WUHU21623XXSP,2013-05-05 00:53:00,
2013-05-04 20:58:00,61.9,41.3,30.58,NE,45,0.0,0.0,47,0.00,,,0.00,WUHU21623XXSP,2013-05-05 00:58:00,
2013-05-04 21:04:00,61.7,41.2,30.59,NE,45,0.0,0.0,47,0.00,,,0.00,WUHU21623XXSP,2013-05-05 01:04:00,
2013-05-04 21:09:00,61.5,41.0,30.59,NE,45,0.0,0.0,47,0.00,,,0.00,WUHU21623XXSP,2013-05-05 01:09:00,
2013-05-04 21:14:00,61.2,40.7,30.59,NE,45,0.0,0.0,47,0.00,,,0.00,WUHU21623XXSP,2013-05-05 01:14:00,
2013-05-04 21:19:00,61.0,40.5,30.59,NE,45,0.0,0.0,47,0.00,,,0.00,WUHU21623XXSP,2013-05-05 01:19:00,
2013-05-04 21:24:00,60.4,40.0,30.59,NE,45,0.0,0.0,47,0.00,,,0.00,WUHU21623XXSP,2013-05-05 01:24:00,
2013-05-04 21:29:00,60.1,39.7,30.59,NE,45,0.0,0.0,47,0.00,,,0.00,WUHU21623XXSP,2013-05-05 01:29:00,
2013-05-04 21:34:00,59.9,40.3,30.59,NE,45,0.0,0.0,48,0.00,,,0.00,WUHU21623XXSP,2013-05-05 01:34:00,
2013-05-04 21:39:00,59.5,39.8,30.60,ENE,67,0.0,0.0,48,0.00,,,0.00,WUHU21623XXSP,2013-05-05 01:39:00,
2013-05-04 21:44:00,59.4,40.2,30.60,ENE,67,0.0,0.0,49,0.00,,,0.00,WUHU21623XXSP,2013-05-05 01:44:00,
2013-05-04 21:49:00,59.0,39.9,30.60,ENE,67,0.0,0.0,49,0.00,,,0.00,WUHU21623XXSP,2013-05-05 01:49:00,
2013-05-04 21:54:00,58.8,39.7,30.60,ENE,67,0.0,0.0,49,0.00,,,0.00,WUHU21623XXSP,2013-05-05 01:54:00,
2013-05-04 21:59:00,58.6,39.6,30.60,ENE,67,0.0,0.0,49,0.00,,,0.00,WUHU21623XXSP,2013-05-05 01:59:00,
2013-05-04 22:04:00,58.3,39.8,30.60,ENE,67,0.0,0.0,50,0.00,,,0.00,WUHU21623XXSP,2013-05-05 02:04:00,
2013-05-04 22:09:00,57.9,39.5,30.60,ENE,67,0.0,0.0,50,0.00,,,0.00,WUHU21623XXSP,2013-05-05 02:09:00,
2013-05-04 22:14:00,57.7,39.3,30.60,ENE,67,0.0,0.0,50,0.00,,,0.00,WUHU21623XXSP,2013-05-05 02:14:00,
2013-05-04 22:19:00,57.4,39.5,30.61,ENE,67,0.0,0.0,51,0.00,,,0.00,WUHU21623XXSP,2013-05-05 02:19:00,
2013-05-04 22:24:00,57.0,39.1,30.61,ENE,67,0.0,0.0,51,0.00,,,0.00,WUHU21623XXSP,2013-05-05 02:24:00,
2013-05-04 22:29:00,56.8,39.4,30.61,ENE,67,0.0,0.0,52,0.00,,,0.00,WUHU21623XXSP,2013-05-05 02:29:00,
2013-05-04 22:34:00,56.5,39.1,30.61,ENE,67,0.0,0.0,52,0.00,,,0.00,WUHU21623XXSP,2013-05-05 02:34:00,
2013-05-04 22:39:00,56.1,38.7,30.61,ENE,67,0.0,0.0,52,0.00,,,0.00,WUHU21623XXSP,2013-05-05 02:39:00,
2013-05-04 22:44:00,55.9,38.5,30.61,ENE,67,0.0,0.0,52,0.00,,,0.00,WUHU21623XXSP,2013-05-05 02:44:00,
2013-05-04 22:49:00,55.6,38.2,30.61,ENE,67,0.0,0.0,52,0.00,,,0.00,WUHU21623XXSP,2013-05-05 02:49:00,
2013-05-04 22:55:00,55.2,38.3,30.61,ENE,67,0.0,0.0,53,0.00,,,0.00,WUHU21623XXSP,2013-05-05 02:55:00,
2013-05-04 23:00:00,55.2,38.3,30.61,ENE,67,0.0,0.0,53,0.00,,,0.00,WUHU21623XXSP,2013-05-05 03:00:00,
2013-05-04 23:05:00,54.7,37.8,30.61,ENE,67,0.0,0.0,53,0.00,,,0.00,WUHU21623XXSP,2013-05-05 03:05:00,
2013-05-04 23:10:00,54.5,37.6,30.61,ENE,67,0.0,0.0,53,0.00,,,0.00,WUHU21623XXSP,2013-05-05 03:10:00,
2013-05-04 23:15:00,54.3,37.5,30.61,ENE,67,0.0,0.0,53,0.00,,,0.00,WUHU21623XXSP,2013-05-05 03:15:00,
2013-05-04 23:20:00,54.0,37.1,30.61,ENE,67,0.0,0.0,53,0.00,,,0.00,WUHU21623XXSP,2013-05-05 03:20:00,
2013-05-04 23:25:00,53.8,37.5,30.62,ENE,67,0.0,0.0,54,0.00,,,0.00,WUHU21623XXSP,2013-05-05 03:25:00,
2013-05-04 23:30:00,53.4,37.6,30.61,ENE,67,0.0,0.0,55,0.00,,,0.00,WUHU21623XXSP,2013-05-05 03:30:00,
2013-05-04 23:35:00,53.2,37.9,30.61,ENE,67,0.0,0.0,56,0.00,,,0.00,WUHU21623XXSP,2013-05-05 03:35:00,
2013-05-04 23:40:00,52.9,37.5,30.61,ENE,67,0.0,0.0,56,0.00,,,0.00,WUHU21623XXSP,2013-05-05 03:40:00,
2013-05-04 23:45:00,52.5,37.2,30.62,ENE,67,0.0,0.0,56,0.00,,,0.00,WUHU21623XXSP,2013-05-05 03:45:00,
2013-05-04 23:50:00,52.3,37.2,30.62,ENE,67,0.0,0.0,56,0.00,,,0.00,WUHU21623XXSP,2013-05-05 03:50:00,
2013-05-04 23:55:00,52.2,36.8,30.62,ENE,67,0.0,0.0,56,0.00,,,0.00,WUHU21623XXSP,2013-05-05 03:55:00,